Garden Valley, California
Current Conditions -  °F | °C
As of 6:55 PM on Friday 19 Dec 2014 (Local Time) from KPVF Reporting Station
Broken Clouds Broken Clouds  
Wind Chill: 40°   Ceiling: 2700
Heat Index: 45°   Visibility: 2.5mi
Dew Point: 45°   Wind: 8mph
Humidity: 100%   Direction: 130°SE
Pressure: 30.15"   Gusts: NA
Location:  38.84°N, 120.86°W
Report Text: KPVF 200255Z AUTO 13007KT 2 1/2SM BKN027 07/07 A3015 RMK AO1 P0001
Loading
Personal Weather Stations






























Interactive Weather Map New forecast layout! Learn more

10-Day Weather Forecast

Advertisements
Track Severe Weather on mobile